首页
METAR-TAF:

METAR-TAF

机场 :

Lonesome Pine Airport

Wise, 弗吉尼亚州, 美国

纬度: 36-59N, 经度: 082-32W, 海拔: 817米

当前天气观测

该预报发布于15分钟前的01:55 UTC
风速3节,风向西
温度 20°C
湿度 88%
气压 1018 hPa
能見度: 16.1公里
散云层高于7500英尺

METAR: KLNP 220155Z AUTO 26003KT 10SM SCT075 20/18 A3007 RMK AO2

时间: 22:10 (02:10 UTC)


TAF: 丢失

超过4000个机场的气象观测和天气预报(METAR&TAF报告)。

可查询的气象台以黄色和红色小点在地图上表示。

将鼠标移到小点上方,可查看气象台名称。

然后点击查看天气观测和预报。

如需切换地图:点击带黑十字的绿色按钮放大地图;点击带横线的绿色按钮缩小地图;或者点击绿色箭头查看邻近地区的地图。


METAR-TAF: